Time;durP1;ratioP1;P1;durP2;ratioP2;P2;SDS_P1;SDS_P2;PMS_P1;PMS_P2;Temp;Humidity;BMP_temperature;BMP_pressure;BME280_temperature;BME280_humidity;BME280_pressure;Samples;Min_cycle;Max_cycle;Signal;HPM_P1;HPM_P2
2021/03/24 00:00:53;;;;;;;123.75;60.17;;;;;;;1.76;100.00;101926.47;5048035;28;20041;-83
2021/03/24 00:03:18;;;;;;;117.10;58.80;;;;;;;1.78;100.00;101925.47;5028023;28;20041;-83
2021/03/24 00:05:49;;;;;;;129.73;61.40;;;;;;;1.75;100.00;101920.31;5007050;28;20056;-86
2021/03/24 00:08:16;;;;;;;125.22;62.22;;;;;;;1.72;100.00;101919.63;5007556;28;20044;-84
2021/03/24 00:10:42;;;;;;;129.65;59.97;;;;;;;1.60;100.00;101915.81;5023269;28;20046;-83
2021/03/24 00:13:09;;;;;;;122.50;59.85;;;;;;;1.64;100.00;101920.03;5017424;28;20042;-82
2021/03/24 00:15:35;;;;;;;128.32;61.42;;;;;;;1.69;100.00;101915.34;5008373;28;20042;-85
2021/03/24 00:18:02;;;;;;;119.85;59.95;;;;;;;1.64;100.00;101911.22;5019387;28;20121;-85
2021/03/24 00:20:31;;;;;;;117.85;58.88;;;;;;;1.64;100.00;101919.16;5027670;28;20049;-85
2021/03/24 00:22:57;;;;;;;127.55;58.90;;;;;;;1.62;100.00;101923.69;5023287;28;20437;-86
2021/03/24 00:25:23;;;;;;;122.03;59.45;;;;;;;1.64;100.00;101917.38;5007418;28;20060;-83
2021/03/24 00:27:50;;;;;;;116.78;58.03;;;;;;;1.60;100.00;101920.25;5014814;28;20409;-83
2021/03/24 00:30:23;;;;;;;129.43;60.92;;;;;;;1.57;100.00;101921.25;5016203;28;20030;-85
2021/03/24 00:32:48;;;;;;;118.68;55.63;;;;;;;1.49;100.00;101913.72;5029131;28;20103;-84
2021/03/24 00:35:15;;;;;;;107.25;54.80;;;;;;;1.42;100.00;101917.63;5020493;28;20065;-83
2021/03/24 00:37:40;;;;;;;117.53;55.85;;;;;;;1.43;100.00;101924.59;5023404;28;20136;-87
2021/03/24 00:40:09;;;;;;;108.55;55.85;;;;;;;1.42;100.00;101919.41;5017008;28;20598;-84
2021/03/24 00:42:35;;;;;;;115.93;56.50;;;;;;;1.39;100.00;101928.34;5016918;28;20041;-85
2021/03/24 00:45:01;;;;;;;114.57;55.40;;;;;;;1.37;100.00;101911.69;5022813;28;20064;-84
2021/03/24 00:47:26;;;;;;;121.13;56.63;;;;;;;1.29;100.00;101922.66;4998998;28;20034;-86
2021/03/24 00:49:51;;;;;;;110.97;55.47;;;;;;;1.27;100.00;101913.09;5030821;28;20038;-82
2021/03/24 00:52:17;;;;;;;112.85;54.80;;;;;;;1.23;100.00;101916.81;5002254;28;20445;-86
2021/03/24 00:54:42;;;;;;;126.43;59.65;;;;;;;1.27;100.00;101913.09;5019397;28;20045;-84
2021/03/24 00:57:08;;;;;;;127.70;61.10;;;;;;;1.25;100.00;101915.81;5022750;28;20100;-86
2021/03/24 00:59:34;;;;;;;131.95;62.10;;;;;;;1.23;100.00;101915.03;5026344;28;20042;-85
2021/03/24 01:01:59;;;;;;;139.68;66.07;;;;;;;1.26;100.00;101912.22;5018162;28;20568;-82
2021/03/24 01:04:25;;;;;;;127.45;62.17;;;;;;;1.25;100.00;101910.53;5014384;28;20132;-84
2021/03/24 01:06:51;;;;;;;130.80;60.10;;;;;;;1.19;100.00;101910.00;5015177;28;20090;-84
2021/03/24 01:09:17;;;;;;;126.00;60.47;;;;;;;1.21;100.00;101898.41;4985412;28;20037;-83
2021/03/24 01:11:42;;;;;;;119.70;57.90;;;;;;;1.16;100.00;101897.78;5013645;28;20379;-85
2021/03/24 01:14:09;;;;;;;113.65;56.17;;;;;;;1.10;100.00;101887.50;5017035;28;20048;-85
2021/03/24 01:16:36;;;;;;;112.20;54.95;;;;;;;1.10;100.00;101888.34;5016891;28;20073;-84
2021/03/24 01:19:02;;;;;;;130.95;58.78;;;;;;;1.10;100.00;101893.66;5019771;28;20050;-83
2021/03/24 01:21:27;;;;;;;125.55;61.08;;;;;;;1.13;100.00;101887.34;5018928;28;20544;-84
2021/03/24 01:23:53;;;;;;;111.68;56.17;;;;;;;1.03;100.00;101886.09;5017981;28;20051;-85
2021/03/24 01:26:19;;;;;;;119.28;56.92;;;;;;;0.98;100.00;101875.75;4989522;28;20056;-84
2021/03/24 01:28:45;;;;;;;118.40;57.15;;;;;;;0.96;100.00;101876.75;5012901;28;20061;-85
2021/03/24 01:31:10;;;;;;;127.43;60.85;;;;;;;1.01;100.00;101875.59;4998101;28;20041;-84
2021/03/24 01:33:36;;;;;;;118.25;59.15;;;;;;;0.97;100.00;101868.75;5021245;28;20033;-84
2021/03/24 01:36:01;;;;;;;118.10;54.80;;;;;;;0.87;100.00;101878.06;5005110;28;20084;-85
2021/03/24 01:38:27;;;;;;;118.63;57.88;;;;;;;0.84;100.00;101872.94;5015935;28;20057;-83
2021/03/24 01:41:00;;;;;;;128.70;59.30;;;;;;;0.89;100.00;101871.78;5013515;28;20045;-85
2021/03/24 01:43:34;;;;;;;126.55;61.95;;;;;;;0.95;100.00;101875.03;5012685;28;20403;-84
2021/03/24 01:46:18;;;;;;;133.10;64.22;;;;;;;0.97;100.00;101867.88;5034899;28;20046;-84
2021/03/24 01:48:47;;;;;;;142.73;64.18;;;;;;;1.03;100.00;101872.88;5010912;28;20160;-84
2021/03/24 01:51:14;;;;;;;122.88;58.92;;;;;;;0.98;100.00;101865.19;5017309;28;20053;-84
2021/03/24 01:53:40;;;;;;;129.93;60.13;;;;;;;0.93;100.00;101875.13;5021118;28;20053;-84
2021/03/24 01:56:07;;;;;;;126.95;61.97;;;;;;;0.95;100.00;101870.63;5004076;28;20049;-84
2021/03/24 01:58:34;;;;;;;123.38;59.38;;;;;;;0.90;100.00;101868.19;5020723;28;20075;-84
2021/03/24 02:00:59;;;;;;;124.28;58.72;;;;;;;0.92;100.00;101873.38;5000306;28;20398;-84
2021/03/24 02:03:27;;;;;;;119.50;56.20;;;;;;;0.87;100.00;101862.22;5007660;28;20042;-85
2021/03/24 02:05:55;;;;;;;120.07;57.15;;;;;;;0.89;100.00;101862.97;5021383;28;20088;-84
2021/03/24 02:08:33;;;;;;;121.30;57.47;;;;;;;0.73;100.00;101862.88;5013088;28;20061;-83
2021/03/24 02:11:29;;;;;;;121.00;57.15;;;;;;;0.73;100.00;101860.25;5029455;28;20052;-83
2021/03/24 02:14:32;;;;;;;121.65;53.72;;;;;;;0.76;100.00;101856.59;5016314;28;20564;-84
2021/03/24 02:16:59;;;;;;;127.70;60.45;;;;;;;0.78;100.00;101855.59;5003085;28;20125;-83
2021/03/24 02:19:56;;;;;;;130.38;58.13;;;;;;;0.70;100.00;101855.09;5015211;28;20589;-84
2021/03/24 02:22:25;;;;;;;138.02;63.08;;;;;;;0.71;100.00;101848.03;5013677;28;20077;-83
2021/03/24 02:25:07;;;;;;;120.30;59.80;;;;;;;0.75;100.00;101850.47;5011725;28;20042;-84
2021/03/24 02:27:35;;;;;;;123.38;58.85;;;;;;;0.72;100.00;101852.38;5019477;28;20045;-83
2021/03/24 02:30:10;;;;;;;117.07;58.38;;;;;;;0.74;100.00;101850.53;5019395;28;20144;-83
2021/03/24 02:32:39;;;;;;;128.10;59.22;;;;;;;0.73;100.00;101848.81;5011551;28;20124;-84
2021/03/24 02:35:12;;;;;;;123.35;56.50;;;;;;;0.72;100.00;101857.66;5018868;28;20045;-82
2021/03/24 02:37:40;;;;;;;122.60;55.63;;;;;;;0.70;100.00;101852.47;5014893;28;20729;-82
2021/03/24 02:40:16;;;;;;;129.43;60.40;;;;;;;0.73;100.00;101846.19;5010790;28;20056;-85
2021/03/24 02:42:44;;;;;;;127.55;56.13;;;;;;;0.71;100.00;101846.25;5009977;28;20037;-84
2021/03/24 02:45:11;;;;;;;137.95;63.58;;;;;;;0.83;100.00;101847.41;5008107;28;20041;-83
2021/03/24 02:47:38;;;;;;;139.02;65.90;;;;;;;0.84;100.00;101849.16;5017176;28;20132;-84
2021/03/24 02:50:05;;;;;;;143.75;64.35;;;;;;;0.79;100.00;101849.38;5013374;28;20095;-83
2021/03/24 02:52:31;;;;;;;130.25;56.90;;;;;;;0.84;100.00;101849.16;5010506;28;20045;-83
2021/03/24 02:54:57;;;;;;;134.98;62.97;;;;;;;0.88;100.00;101845.41;5016781;28;20058;-82
2021/03/24 02:57:22;;;;;;;165.55;77.03;;;;;;;0.96;100.00;101845.91;5021519;28;20132;-84
2021/03/24 02:59:50;;;;;;;134.00;63.55;;;;;;;0.95;100.00;101849.47;5024022;28;20045;-84
2021/03/24 03:02:21;;;;;;;138.50;65.38;;;;;;;0.94;100.00;101846.91;5014631;28;20045;-84
2021/03/24 03:04:52;;;;;;;135.82;62.60;;;;;;;0.91;100.00;101842.63;5022725;28;20509;-82
2021/03/24 03:07:27;;;;;;;158.38;69.72;;;;;;;0.85;100.00;101843.78;5003827;28;20072;-85
2021/03/24 03:09:59;;;;;;;147.35;64.20;;;;;;;0.76;100.00;101838.09;5013178;28;20111;-83
2021/03/24 03:12:54;;;;;;;148.20;69.32;;;;;;;0.71;100.00;101840.97;5016712;28;20103;-84
2021/03/24 03:15:33;;;;;;;158.65;70.07;;;;;;;0.75;100.00;101846.94;5023786;28;20038;-86
2021/03/24 03:18:16;;;;;;;159.80;71.25;;;;;;;0.82;100.00;101840.44;5025617;28;20128;-85
2021/03/24 03:20:51;;;;;;;167.93;74.22;;;;;;;0.81;100.00;101844.88;5006858;28;20066;-84
2021/03/24 03:23:20;;;;;;;140.82;67.43;;;;;;;0.83;100.00;101850.06;5018483;28;20064;-82
2021/03/24 03:25:53;;;;;;;157.25;74.00;;;;;;;0.84;100.00;101839.44;5013145;28;20053;-83
2021/03/24 03:28:19;;;;;;;166.50;75.13;;;;;;;0.90;100.00;101841.78;5027431;28;20045;-83
2021/03/24 03:30:51;;;;;;;169.95;75.15;;;;;;;0.91;100.00;101842.63;5028554;28;20406;-82
2021/03/24 03:33:23;;;;;;;165.27;74.35;;;;;;;0.97;100.00;101836.16;5024714;28;20052;-84
2021/03/24 03:35:52;;;;;;;168.45;75.63;;;;;;;0.88;100.00;101837.50;5019180;28;20554;-85
2021/03/24 03:38:18;;;;;;;175.70;77.45;;;;;;;0.92;100.00;101831.09;5009305;28;20675;-82
2021/03/24 03:40:46;;;;;;;180.75;77.55;;;;;;;0.88;100.00;101832.19;5015388;28;20398;-83
2021/03/24 03:43:16;;;;;;;205.63;87.85;;;;;;;0.95;100.00;101840.66;5015190;28;20100;-83
2021/03/24 03:45:44;;;;;;;181.73;78.65;;;;;;;1.00;100.00;101836.88;5023251;28;20038;-82
2021/03/24 03:48:13;;;;;;;180.30;82.07;;;;;;;1.07;100.00;101827.72;5007869;28;20049;-82
2021/03/24 03:50:39;;;;;;;153.20;73.57;;;;;;;1.03;100.00;101835.84;5016515;28;20478;-82
2021/03/24 03:53:19;;;;;;;177.57;79.78;;;;;;;1.00;100.00;101841.31;5019893;28;20052;-83
2021/03/24 03:56:00;;;;;;;190.73;83.40;;;;;;;1.07;100.00;101833.00;5018778;28;20045;-82
2021/03/24 03:58:48;;;;;;;167.90;76.80;;;;;;;1.07;100.00;101832.16;5008972;28;20050;-82
2021/03/24 04:01:21;;;;;;;183.73;81.80;;;;;;;1.03;100.00;101836.72;5011510;28;20577;-82
2021/03/24 04:04:00;;;;;;;189.60;84.70;;;;;;;1.07;100.00;101833.00;5011425;28;20061;-83
2021/03/24 04:06:40;;;;;;;187.55;84.05;;;;;;;1.02;100.00;101829.72;4987738;28;20115;-84
2021/03/24 04:09:09;;;;;;;172.40;82.60;;;;;;;1.07;100.00;101829.50;5027678;28;20132;-82
2021/03/24 04:11:43;;;;;;;172.75;80.25;;;;;;;1.07;100.00;101830.34;5014596;28;20549;-83
2021/03/24 04:14:15;;;;;;;184.95;87.95;;;;;;;1.12;100.00;101830.09;5027264;28;20073;-83
2021/03/24 04:16:42;;;;;;;182.45;83.88;;;;;;;1.16;100.00;101836.13;5017341;28;22966;-83
2021/03/24 04:19:10;;;;;;;182.02;82.68;;;;;;;1.18;100.00;101832.47;5001931;28;22355;-84
2021/03/24 04:21:42;;;;;;;185.30;87.70;;;;;;;1.24;100.00;101833.94;5031645;28;20636;-84
2021/03/24 04:24:15;;;;;;;155.05;78.03;;;;;;;1.27;100.00;101831.13;5021221;28;20045;-83
2021/03/24 04:26:45;;;;;;;181.20;83.78;;;;;;;1.24;100.00;101828.66;5025302;28;20125;-83
2021/03/24 04:29:16;;;;;;;177.52;85.95;;;;;;;1.29;100.00;101834.53;5002438;28;20041;-84
2021/03/24 04:31:55;;;;;;;174.75;83.88;;;;;;;1.35;100.00;101831.56;5026557;28;20512;-83
2021/03/24 04:34:21;;;;;;;156.93;74.43;;;;;;;1.35;100.00;101834.22;5029575;28;20049;-82
2021/03/24 04:36:57;;;;;;;161.50;74.53;;;;;;;1.27;100.00;101833.78;5022678;28;20053;-83
2021/03/24 04:39:44;;;;;;;187.77;85.57;;;;;;;1.32;100.00;101829.97;5032722;28;20049;-83
2021/03/24 04:42:17;;;;;;;157.02;76.10;;;;;;;1.38;100.00;101838.50;5018136;28;20046;-83
2021/03/24 04:44:48;;;;;;;160.20;75.63;;;;;;;1.42;100.00;101842.69;5018038;28;20079;-84
2021/03/24 04:47:26;;;;;;;165.98;82.68;;;;;;;1.42;100.00;101837.41;5007487;28;20049;-83
2021/03/24 04:50:06;;;;;;;161.15;79.30;;;;;;;1.39;100.00;101833.13;5019032;28;20586;-84
2021/03/24 04:52:34;;;;;;;165.48;78.18;;;;;;;1.38;100.00;101834.03;5012168;28;20049;-83
2021/03/24 04:55:12;;;;;;;159.55;79.88;;;;;;;1.42;100.00;101838.25;5037890;28;20371;-82
2021/03/24 04:57:38;;;;;;;154.27;78.63;;;;;;;1.51;100.00;101847.50;5037112;28;20062;-82
2021/03/24 05:00:30;;;;;;;162.73;80.03;;;;;;;1.46;100.00;101849.53;5025638;28;20083;-82
2021/03/24 05:03:03;;;;;;;145.02;75.63;;;;;;;1.44;100.00;101846.09;5012120;28;20132;-85
2021/03/24 05:05:30;;;;;;;143.60;72.25;;;;;;;1.46;100.00;101845.09;5016079;28;20497;-83
2021/03/24 05:08:24;;;;;;;144.35;74.05;;;;;;;1.43;100.00;101842.59;5013601;28;20065;-82
2021/03/24 05:10:55;;;;;;;148.90;74.03;;;;;;;1.47;100.00;101844.19;5015882;28;20423;-83
2021/03/24 05:13:35;;;;;;;138.82;67.72;;;;;;;1.47;100.00;101841.53;5019496;28;20052;-83
2021/03/24 05:16:35;;;;;;;143.13;74.40;;;;;;;1.52;100.00;101842.13;5019769;28;20050;-83
2021/03/24 05:19:01;;;;;;;133.55;69.15;;;;;;;1.54;100.00;101842.06;5004042;28;20033;-82
2021/03/24 05:21:54;;;;;;;147.65;72.47;;;;;;;1.60;100.00;101840.88;5019889;28;20041;-84
2021/03/24 05:24:31;;;;;;;137.38;67.63;;;;;;;1.53;100.00;101841.19;5014471;28;20042;-83
2021/03/24 05:27:14;;;;;;;140.90;72.40;;;;;;;1.56;100.00;101837.53;5017294;28;20072;-83
2021/03/24 05:29:46;;;;;;;144.70;64.68;;;;;;;1.63;100.00;101843.34;5015252;28;20050;-84
2021/03/24 05:32:22;;;;;;;150.38;73.60;;;;;;;1.60;100.00;101846.16;5019673;28;20410;-84
2021/03/24 05:34:55;;;;;;;124.18;67.53;;;;;;;1.61;100.00;101838.13;5020275;28;20045;-82
2021/03/24 05:37:28;;;;;;;140.00;66.25;;;;;;;1.63;100.00;101844.22;5021614;28;20120;-82
2021/03/24 05:40:06;;;;;;;140.82;73.30;;;;;;;1.73;100.00;101841.94;5019047;28;20133;-83
2021/03/24 05:42:57;;;;;;;133.25;66.03;;;;;;;1.73;100.00;101844.59;5019931;28;20056;-83
2021/03/24 05:45:44;;;;;;;122.40;67.47;;;;;;;1.78;100.00;101853.13;5018211;28;20048;-82
2021/03/24 05:48:53;;;;;;;122.38;68.82;;;;;;;1.75;100.00;101851.50;5031815;28;20099;-83
2021/03/24 05:51:31;;;;;;;136.25;67.32;;;;;;;1.72;100.00;101849.00;4995963;28;20041;-84
2021/03/24 05:54:16;;;;;;;133.43;65.95;;;;;;;1.82;100.00;101851.19;5031299;28;20490;-82
2021/03/24 05:57:25;;;;;;;121.80;64.88;;;;;;;1.85;100.00;101851.88;5024437;28;20160;-84
2021/03/24 06:03:04;;;;;;;128.63;67.05;;;;;;;1.85;100.00;101846.59;3194877;23;20045;-84
2021/03/24 06:05:41;;;;;;;128.55;64.13;;;;;;;1.90;100.00;101855.13;4992973;28;20041;-83
2021/03/24 06:08:37;;;;;;;132.65;67.40;;;;;;;1.97;100.00;101850.34;5013378;28;20155;-83
2021/03/24 06:11:35;;;;;;;118.28;64.35;;;;;;;2.03;100.00;101848.22;5000218;28;20081;-83
2021/03/24 06:14:18;;;;;;;120.90;61.83;;;;;;;2.11;100.00;101852.25;5005380;28;20422;-83
2021/03/24 06:17:03;;;;;;;119.50;66.53;;;;;;;2.18;100.00;101850.97;5001392;28;20042;-83
2021/03/24 06:19:55;;;;;;;114.93;58.70;;;;;;;2.22;100.00;101844.59;5004252;28;20050;-82
2021/03/24 06:23:14;;;;;;;115.55;62.00;;;;;;;2.26;100.00;101844.31;5006050;28;20061;-83
2021/03/24 06:25:42;;;;;;;117.18;62.45;;;;;;;2.30;100.00;101841.50;4980304;28;20107;-82
2021/03/24 06:28:40;;;;;;;106.55;50.88;;;;;;;2.36;100.00;101839.38;5005248;28;20112;-82
2021/03/24 06:31:43;;;;;;;107.63;53.35;;;;;;;2.40;100.00;101838.25;4987280;28;20394;-82
2021/03/24 06:34:22;;;;;;;106.72;58.85;;;;;;;2.49;100.00;101844.84;4976022;28;20034;-82
2021/03/24 06:37:06;;;;;;;111.78;60.15;;;;;;;2.55;100.00;101843.63;5004787;28;20097;-82
2021/03/24 06:39:32;;;;;;;103.88;55.22;;;;;;;2.63;100.00;101839.59;5004755;28;20061;-83
2021/03/24 06:42:17;;;;;;;102.78;57.03;;;;;;;2.69;100.00;101833.94;5009408;28;20073;-83
2021/03/24 06:45:13;;;;;;;103.38;55.72;;;;;;;2.78;100.00;101835.22;4994873;28;21183;-83
2021/03/24 06:47:41;;;;;;;107.05;55.85;;;;;;;2.84;100.00;101841.97;5001642;28;20050;-82
2021/03/24 06:50:52;;;;;;;99.80;54.47;;;;;;;2.96;100.00;101835.94;4998200;28;20490;-83
2021/03/24 06:53:43;;;;;;;94.88;51.72;;;;;;;3.02;100.00;101840.03;4995687;28;20037;-83
2021/03/24 06:56:37;;;;;;;93.40;49.38;;;;;;;3.10;100.00;101832.47;4990759;28;20498;-83
2021/03/24 06:59:06;;;;;;;88.75;46.72;;;;;;;3.18;100.00;101830.22;4986464;28;20078;-83
2021/03/24 07:02:25;;;;;;;93.93;42.75;;;;;;;3.34;100.00;101830.19;4994696;28;20052;-83
2021/03/24 07:05:10;;;;;;;91.28;47.95;;;;;;;3.43;100.00;101834.09;4981067;28;20100;-83
2021/03/24 07:07:38;;;;;;;82.03;48.90;;;;;;;3.50;100.00;101836.25;5016911;28;20083;-83
2021/03/24 07:10:24;;;;;;;86.47;48.00;;;;;;;3.60;100.00;101831.25;5018511;28;20595;-82
2021/03/24 07:13:27;;;;;;;85.80;47.03;;;;;;;3.72;100.00;101838.47;5033167;28;20049;-83
2021/03/24 07:16:21;;;;;;;81.65;43.38;;;;;;;3.82;100.00;101836.09;5022646;28;20132;-83
2021/03/24 07:19:15;;;;;;;83.95;45.67;;;;;;;3.92;100.00;101842.53;5020476;28;20175;-86
2021/03/24 07:22:08;;;;;;;81.85;47.28;;;;;;;4.01;100.00;101841.13;5015041;28;20056;-85
2021/03/24 07:25:01;;;;;;;81.75;50.33;;;;;;;4.13;100.00;101836.84;5037530;28;20327;-84
2021/03/24 07:27:42;;;;;;;78.60;43.72;;;;;;;4.24;100.00;101843.16;5022155;28;20061;-87
2021/03/24 07:30:33;;;;;;;77.95;43.63;;;;;;;4.35;100.00;101831.00;5033651;28;20397;-83
2021/03/24 07:33:09;;;;;;;79.65;45.85;;;;;;;4.52;100.00;101836.94;5015171;28;20053;-86
2021/03/24 07:35:56;;;;;;;74.53;43.53;;;;;;;4.64;100.00;101834.44;5018769;28;20052;-86
2021/03/24 07:38:30;;;;;;;80.68;46.03;;;;;;;4.74;100.00;101833.72;5024583;28;20046;-84
2021/03/24 07:41:20;;;;;;;78.28;42.08;;;;;;;4.90;100.00;101835.38;5020117;28;20048;-86
2021/03/24 07:44:12;;;;;;;75.72;45.35;;;;;;;4.99;99.05;101837.41;5026903;28;20156;-84
2021/03/24 07:47:13;;;;;;;73.60;42.80;;;;;;;5.15;99.17;101840.75;5020281;28;20091;-83
2021/03/24 07:49:47;;;;;;;71.28;39.40;;;;;;;5.27;97.65;101844.41;5019727;28;20154;-85
2021/03/24 07:52:35;;;;;;;70.57;39.15;;;;;;;5.36;97.65;101840.25;5038438;28;20540;-87
2021/03/24 07:55:05;;;;;;;71.97;41.58;;;;;;;5.54;96.93;101846.97;5003112;28;20088;-86
2021/03/24 07:57:41;;;;;;;69.18;37.95;;;;;;;5.61;95.57;101834.94;5020675;28;20545;-84
2021/03/24 08:00:13;;;;;;;70.65;40.47;;;;;;;5.76;95.51;101838.34;5007166;28;20046;-84
2021/03/24 08:03:07;;;;;;;67.35;41.35;;;;;;;5.84;94.83;101844.00;5026171;28;20501;-85
2021/03/24 08:05:42;;;;;;;71.47;40.95;;;;;;;5.89;94.31;101835.66;5020830;28;20125;-84
2021/03/24 08:08:19;;;;;;;70.55;37.67;;;;;;;6.02;94.13;101841.88;5033933;28;20052;-83
2021/03/24 08:10:54;;;;;;;65.50;38.28;;;;;;;6.12;93.45;101831.38;5032071;28;20128;-85
2021/03/24 08:13:34;;;;;;;74.78;42.88;;;;;;;6.21;92.61;101821.88;5023741;28;20061;-84
2021/03/24 08:16:11;;;;;;;69.93;41.15;;;;;;;6.33;91.61;101829.00;5007735;28;20471;-84
2021/03/24 08:18:52;;;;;;;67.18;39.25;;;;;;;6.46;91.67;101829.81;5037955;28;20199;-84
2021/03/24 08:21:36;;;;;;;69.43;42.00;;;;;;;6.51;89.87;101834.81;5023954;28;20757;-83
2021/03/24 08:24:13;;;;;;;68.75;39.13;;;;;;;6.64;89.76;101832.91;5022962;28;20053;-85
2021/03/24 08:26:48;;;;;;;67.82;38.58;;;;;;;6.75;89.38;101832.97;5040508;28;20048;-84
2021/03/24 08:29:20;;;;;;;67.97;38.67;;;;;;;6.84;89.28;101828.78;5002917;28;20037;-85
2021/03/24 08:32:16;;;;;;;73.35;37.58;;;;;;;6.96;88.47;101827.88;5021240;28;20046;-85
2021/03/24 08:34:50;;;;;;;70.22;35.15;;;;;;;7.11;88.22;101833.03;5032219;28;20042;-87
2021/03/24 08:37:46;;;;;;;64.75;39.63;;;;;;;7.24;86.44;101833.78;5025011;28;20053;-84
2021/03/24 08:40:49;;;;;;;69.13;38.97;;;;;;;7.28;86.26;101805.00;5022679;28;20049;-84
2021/03/24 08:43:33;;;;;;;71.72;41.78;;;;;;;7.32;85.55;101822.50;5010801;28;20049;-85
2021/03/24 08:46:11;;;;;;;70.40;36.40;;;;;;;7.52;86.31;101829.00;4994195;28;20042;-85
2021/03/24 08:48:49;;;;;;;75.22;38.63;;;;;;;7.47;84.82;101824.00;5026256;28;20045;-85
2021/03/24 08:51:29;;;;;;;70.45;35.38;;;;;;;7.53;85.31;101820.00;5006553;28;20045;-85
2021/03/24 08:54:13;;;;;;;72.50;38.17;;;;;;;7.61;84.50;101817.59;5019884;28;20045;-84
2021/03/24 08:56:59;;;;;;;73.88;42.33;;;;;;;7.74;84.00;101817.44;5023555;28;20202;-85
2021/03/24 08:59:36;;;;;;;71.18;40.47;;;;;;;7.81;83.32;101819.53;5037605;28;20037;-84
2021/03/24 09:02:41;;;;;;;71.97;40.47;;;;;;;7.91;83.31;101811.63;5003903;28;20045;-84
2021/03/24 09:05:25;;;;;;;73.13;39.95;;;;;;;7.92;82.40;101808.00;5020600;28;20140;-84
2021/03/24 09:07:57;;;;;;;67.55;35.97;;;;;;;7.95;82.54;101810.44;5035740;28;20069;-85
2021/03/24 09:10:45;;;;;;;68.78;33.22;;;;;;;8.07;81.86;101814.78;5021966;28;20033;-85
2021/03/24 09:13:20;;;;;;;67.68;35.90;;;;;;;8.18;81.60;101805.91;5023652;28;20087;-85
2021/03/24 09:16:22;;;;;;;66.85;41.58;;;;;;;8.35;81.56;101812.56;5040723;28;20072;-84
2021/03/24 09:18:56;;;;;;;68.30;41.45;;;;;;;8.49;80.93;101816.81;5039799;28;20084;-84
2021/03/24 09:22:02;;;;;;;71.70;40.40;;;;;;;8.55;79.77;101802.94;5017449;28;20034;-85
2021/03/24 09:24:45;;;;;;;71.22;39.80;;;;;;;8.69;79.53;101805.31;5017645;28;20401;-85
2021/03/24 09:27:20;;;;;;;69.05;40.85;;;;;;;8.69;80.04;101799.97;5007063;28;20103;-85
2021/03/24 09:30:22;;;;;;;68.78;40.90;;;;;;;8.72;79.42;101798.88;5021998;28;20045;-86
2021/03/24 09:33:07;;;;;;;68.47;36.00;;;;;;;8.98;78.97;101800.22;5034362;28;20050;-85
2021/03/24 09:35:50;;;;;;;69.28;39.50;;;;;;;9.11;78.46;101802.69;5035207;28;20038;-85
2021/03/24 09:38:24;;;;;;;69.28;38.75;;;;;;;9.18;77.08;101805.72;5026716;28;20038;-85
2021/03/24 09:40:54;;;;;;;69.03;38.80;;;;;;;9.29;76.43;101796.75;5021066;28;20037;-85
2021/03/24 09:43:22;;;;;;;71.45;41.42;;;;;;;9.40;75.99;101800.19;5014507;28;20037;-85
2021/03/24 09:46:05;;;;;;;69.13;40.73;;;;;;;9.47;75.82;101789.81;5018490;28;20747;-85
2021/03/24 09:48:51;;;;;;;70.50;38.60;;;;;;;9.50;75.59;101786.88;5035528;28;20300;-85
2021/03/24 09:51:24;;;;;;;69.07;38.58;;;;;;;9.61;75.40;101785.91;5005529;28;20414;-85
2021/03/24 09:54:13;;;;;;;67.65;36.03;;;;;;;9.59;74.63;101786.06;5036631;28;20392;-84
2021/03/24 09:56:46;;;;;;;69.63;40.47;;;;;;;9.67;75.73;101780.88;5002743;28;20076;-84
2021/03/24 09:59:35;;;;;;;70.57;37.30;;;;;;;9.84;75.47;101781.22;5025123;28;20400;-85
2021/03/24 10:02:22;;;;;;;71.57;42.13;;;;;;;9.92;75.57;101776.03;5011778;28;20045;-85
2021/03/24 10:05:00;;;;;;;69.10;36.33;;;;;;;10.07;74.14;101782.72;5036887;28;20049;-85
2021/03/24 10:07:32;;;;;;;67.63;37.22;;;;;;;10.12;72.51;101784.97;5018886;28;20115;-84
2021/03/24 10:10:34;;;;;;;71.22;38.83;;;;;;;10.17;72.95;101780.91;5028624;28;20077;-86
2021/03/24 10:13:30;;;;;;;68.72;35.83;;;;;;;10.20;72.08;101776.25;4980124;28;20457;-85
2021/03/24 10:16:09;;;;;;;72.55;39.20;;;;;;;10.31;72.41;101773.50;5016437;28;20045;-85
2021/03/24 10:18:45;;;;;;;78.38;41.75;;;;;;;10.40;71.71;101778.03;5016919;28;20045;-85
2021/03/24 10:21:15;;;;;;;74.32;37.38;;;;;;;10.49;71.75;101766.44;5014105;28;20050;-84
2021/03/24 10:23:47;;;;;;;69.50;34.95;;;;;;;10.50;70.60;101772.66;5022799;28;20053;-85
2021/03/24 10:26:28;;;;;;;68.28;36.13;;;;;;;10.69;71.32;101772.66;5023760;28;20038;-85
2021/03/24 10:28:56;;;;;;;69.05;35.38;;;;;;;10.85;69.20;101780.19;5020617;28;20050;-85
2021/03/24 10:31:25;;;;;;;69.30;39.33;;;;;;;10.87;70.30;101780.00;5014531;28;20041;-83
2021/03/24 10:34:12;;;;;;;69.15;38.05;;;;;;;10.93;70.33;101766.00;5008058;28;20231;-84
2021/03/24 10:37:06;;;;;;;65.35;32.05;;;;;;;11.01;69.75;101766.16;5022163;28;20046;-85
2021/03/24 10:39:45;;;;;;;61.60;31.50;;;;;;;11.00;68.52;101765.31;5034719;28;20513;-85
2021/03/24 10:42:31;;;;;;;66.05;33.05;;;;;;;11.02;68.96;101763.34;5021371;28;21187;-85
2021/03/24 10:45:05;;;;;;;67.13;34.03;;;;;;;11.26;68.76;101764.69;5019445;28;20061;-86
2021/03/24 10:48:13;;;;;;;61.40;34.80;;;;;;;11.35;67.55;101773.72;5014306;28;20597;-85
2021/03/24 10:50:59;;;;;;;67.65;36.38;;;;;;;11.39;67.87;101762.53;4949808;28;20118;-84
2021/03/24 10:53:29;;;;;;;64.25;31.88;;;;;;;11.37;65.63;101767.22;5032727;28;20374;-84
2021/03/24 10:56:27;;;;;;;62.22;33.85;;;;;;;11.48;67.09;101747.41;5014521;28;20133;-84
2021/03/24 10:59:30;;;;;;;59.47;33.20;;;;;;;11.51;67.17;101747.94;5015175;28;20056;-85
2021/03/24 11:02:05;;;;;;;62.33;33.97;;;;;;;11.58;66.93;101753.56;5015141;28;20957;-85
2021/03/24 11:04:57;;;;;;;56.60;33.30;;;;;;;11.81;67.88;101748.66;5017465;28;20076;-85
2021/03/24 11:07:45;;;;;;;61.95;33.38;;;;;;;12.07;67.14;101754.19;4991497;28;20076;-84
2021/03/24 11:10:11;;;;;;;58.92;31.33;;;;;;;12.12;64.93;101756.47;4994227;28;20045;-84
2021/03/24 11:12:45;;;;;;;59.55;32.33;;;;;;;12.13;65.01;101758.13;5017287;28;20134;-85
2021/03/24 11:15:22;;;;;;;62.20;31.23;;;;;;;12.13;65.29;101752.75;5015180;28;20110;-85
2021/03/24 11:18:02;;;;;;;60.08;33.33;;;;;;;12.08;64.29;101749.66;5031321;28;20045;-84
2021/03/24 11:20:48;;;;;;;54.17;29.23;;;;;;;12.14;65.07;101751.75;5020897;28;20033;-86
2021/03/24 11:23:17;;;;;;;58.28;30.42;;;;;;;12.30;64.91;101751.09;5000941;28;20041;-85
2021/03/24 11:26:22;;;;;;;51.95;27.20;;;;;;;12.38;63.44;101752.03;5016889;28;20046;-85
2021/03/24 11:28:53;;;;;;;56.90;31.05;;;;;;;12.29;62.85;101747.56;5016583;28;20045;-86
2021/03/24 11:31:26;;;;;;;57.25;28.85;;;;;;;12.32;62.80;101738.34;5000087;28;20045;-85
2021/03/24 11:34:04;;;;;;;57.63;31.40;;;;;;;12.28;63.47;101742.31;5018776;28;20501;-85
2021/03/24 11:36:40;;;;;;;50.40;29.23;;;;;;;12.38;62.85;101732.34;5039686;28;20081;-85
2021/03/24 11:39:27;;;;;;;53.67;25.98;;;;;;;12.53;61.92;101732.66;5045702;28;20049;-86
2021/03/24 11:42:08;;;;;;;52.80;29.23;;;;;;;12.59;62.82;101732.03;5044787;28;20046;-85
2021/03/24 11:44:33;;;;;;;53.05;30.58;;;;;;;12.60;63.23;101714.84;5026428;28;20045;-85
2021/03/24 11:47:14;;;;;;;54.95;30.27;;;;;;;12.77;62.18;101713.16;5017601;28;20056;-84
2021/03/24 11:49:54;;;;;;;44.63;24.52;;;;;;;12.78;60.08;101720.25;5017426;28;20092;-85
2021/03/24 11:52:40;;;;;;;49.53;26.75;;;;;;;12.92;59.94;101708.03;5022588;28;20041;-85
2021/03/24 11:55:31;;;;;;;44.78;26.27;;;;;;;13.00;61.94;101719.72;5007832;28;20058;-85
2021/03/24 11:58:24;;;;;;;48.17;24.90;;;;;;;12.95;60.97;101705.06;5022312;28;20064;-85